Terminal Aerodrome Forecast
Issued by NWS Tampa Bay Area, FL

Home | Current Version | Previous Version | Text Only | Print | Product List | Glossary On
Versions: 1 2 3 4 5 6 7 8 9 10 11 12 13 14 15 16 17 18 19 20 21 22 23 24 25 26 27 28
000
FTUS42 KTBW 300300 AAA
TAFTPA
TAF AMD
KTPA 300307Z 3003/3024 28005KT P6SM FEW020 SCT250
     FM301000 31004KT P6SM FEW020 SCT250
     FM301500 33006KT P6SM SCT020 SCT250
     FM301800 26010KT P6SM VCTS SCT025CB SCT250=

USA.gov is the U.S. government's official web portal to all federal, state and local government web resources and services.